createdAt,value
2023-03-27T00:03:18.386Z,85.80
2023-03-27T00:08:26.533Z,86.09
2023-03-27T00:13:34.919Z,86.58
2023-03-27T00:18:42.768Z,87.26
2023-03-27T00:23:50.828Z,87.25
2023-03-27T00:28:58.119Z,87.47
2023-03-27T00:34:05.534Z,87.35
2023-03-27T00:45:16.265Z,87.77
2023-03-27T00:50:26.136Z,87.30
2023-03-27T00:55:33.853Z,87.20
2023-03-27T01:00:38.294Z,87.06
2023-03-27T01:05:43.656Z,86.54
2023-03-27T01:10:58.975Z,86.47
2023-03-27T01:19:38.806Z,86.60
2023-03-27T01:25:13.953Z,86.33
2023-03-27T01:30:28.880Z,86.35
2023-03-27T01:36:18.377Z,86.57
2023-03-27T01:41:31.793Z,86.65
2023-03-27T01:46:46.629Z,86.79
2023-03-27T01:52:01.585Z,86.96
2023-03-27T01:57:16.671Z,87.09
2023-03-27T02:02:30.188Z,87.00
2023-03-27T02:07:42.861Z,87.14
2023-03-27T02:12:56.335Z,87.03
2023-03-27T02:18:06.407Z,87.32
2023-03-27T02:23:14.297Z,87.35
2023-03-27T02:28:46.388Z,87.25
2023-03-27T02:34:16.973Z,87.40
2023-03-27T02:39:34.009Z,87.18
2023-03-27T02:44:51.874Z,87.55
2023-03-27T02:50:04.787Z,87.49
2023-03-27T02:55:17.735Z,87.39
2023-03-27T03:00:28.954Z,87.25
2023-03-27T03:05:38.309Z,87.31
2023-03-27T03:10:49.917Z,87.44
2023-03-27T03:15:57.867Z,87.46
2023-03-27T03:21:06.102Z,87.82
2023-03-27T03:26:13.621Z,87.76
2023-03-27T03:31:23.107Z,87.55
2023-03-27T03:36:31.343Z,87.83
2023-03-27T03:41:38.893Z,87.59
2023-03-27T03:46:46.491Z,87.54
2023-03-27T03:52:04.248Z,87.65
2023-03-27T03:57:12.884Z,87.69
2023-03-27T04:02:28.945Z,87.56
2023-03-27T04:07:37.223Z,87.72
2023-03-27T04:12:49.928Z,87.50
2023-03-27T04:17:58.325Z,87.53
2023-03-27T04:23:06.697Z,87.65
2023-03-27T04:28:16.965Z,87.64
2023-03-27T04:33:24.399Z,87.74
2023-03-27T04:38:32.187Z,87.33
2023-03-27T04:43:40.567Z,87.36
2023-03-27T04:48:48.488Z,87.24
2023-03-27T04:53:56.843Z,87.53
2023-03-27T04:59:06.303Z,87.77
2023-03-27T05:04:15.359Z,87.68
2023-03-27T05:09:23.283Z,87.73
2023-03-27T05:14:30.990Z,87.95
2023-03-27T05:19:39.345Z,88.10
2023-03-27T05:24:47.272Z,88.07
2023-03-27T05:29:56.274Z,88.51
2023-03-27T05:35:07.123Z,89.67
2023-03-27T05:48:50.672Z,90.67
2023-03-27T05:54:01.107Z,91.12
2023-03-27T05:59:09.473Z,91.57
2023-03-27T06:04:20.899Z,90.84
2023-03-27T06:09:29.586Z,90.87
2023-03-27T06:14:38.499Z,91.11
2023-03-27T06:19:46.543Z,91.33
2023-03-27T06:24:55.299Z,91.38
2023-03-27T06:30:02.895Z,91.60
2023-03-27T06:35:11.741Z,91.45
2023-03-27T06:40:23.326Z,91.43
2023-03-27T06:45:33.571Z,91.60
2023-03-27T06:50:42.054Z,92.46
2023-03-27T06:55:51.144Z,93.27
2023-03-27T07:00:58.792Z,93.97
2023-03-27T07:06:06.948Z,94.11
2023-03-27T07:11:14.892Z,94.04
2023-03-27T07:16:24.157Z,93.98
2023-03-27T07:21:32.628Z,93.94
2023-03-27T07:26:41.324Z,94.07
2023-03-27T07:37:00.864Z,94.22
2023-03-27T07:42:10.147Z,95.04
2023-03-27T07:47:19.157Z,95.10
2023-03-27T07:52:27.798Z,95.15
2023-03-27T07:57:54.964Z,95.17
2023-03-27T08:03:10.947Z,95.23
2023-03-27T08:08:19.198Z,95.29
2023-03-27T08:13:26.805Z,94.77
2023-03-27T08:18:34.695Z,95.40
2023-03-27T08:23:43.145Z,95.53
2023-03-27T08:28:54.457Z,95.63
2023-03-27T08:34:02.594Z,96.29
2023-03-27T08:39:10.178Z,96.43
2023-03-27T08:44:21.427Z,97.38
2023-03-27T08:49:33.124Z,97.88
2023-03-27T08:54:41.969Z,97.98
2023-03-27T08:59:51.172Z,97.75
2023-03-27T09:05:04.504Z,96.10
2023-03-27T09:10:22.871Z,94.19
2023-03-27T09:15:34.073Z,93.12
2023-03-27T09:20:47.596Z,92.93
2023-03-27T09:25:59.706Z,92.68
2023-03-27T09:31:22.809Z,92.74
2023-03-27T09:36:30.605Z,93.58
2023-03-27T09:41:44.434Z,93.55
2023-03-27T09:46:58.229Z,93.88
2023-03-27T09:52:08.022Z,92.78
2023-03-27T09:57:16.964Z,89.57
2023-03-27T10:02:28.603Z,89.15
2023-03-27T10:07:36.243Z,89.81
2023-03-27T10:12:45.193Z,91.57
2023-03-27T10:17:53.185Z,92.23
2023-03-27T10:23:04.070Z,92.57
2023-03-27T10:28:19.405Z,92.70
2023-03-27T10:33:35.508Z,92.24
2023-03-27T10:38:45.064Z,92.22
2023-03-27T10:43:54.095Z,91.65
2023-03-27T10:49:14.658Z,92.18
2023-03-27T10:54:45.746Z,91.61
2023-03-27T10:59:59.609Z,91.80
2023-03-27T11:05:13.992Z,91.08
2023-03-27T11:10:26.498Z,89.80
2023-03-27T11:15:41.397Z,89.70
2023-03-27T11:20:53.913Z,90.28
2023-03-27T11:26:05.285Z,89.65
2023-03-27T11:31:24.393Z,88.95
2023-03-27T11:36:42.084Z,88.05
2023-03-27T11:46:22.864Z,88.22
2023-03-27T11:51:43.522Z,88.41
2023-03-27T11:56:55.819Z,88.00
2023-03-27T12:02:14.947Z,87.24
2023-03-27T12:07:36.397Z,87.43
2023-03-27T12:13:03.386Z,88.19
2023-03-27T12:18:35.266Z,87.93
2023-03-27T12:24:13.648Z,85.48
2023-03-27T12:29:43.785Z,84.50
2023-03-27T12:34:56.901Z,84.55
2023-03-27T12:40:14.688Z,85.55
2023-03-27T12:45:24.958Z,85.39
2023-03-27T12:50:37.150Z,84.23
2023-03-27T12:55:45.178Z,81.83
2023-03-27T13:01:00.984Z,80.80
2023-03-27T13:06:20.929Z,80.52
2023-03-27T13:11:43.669Z,79.36
2023-03-27T13:17:23.350Z,78.64
2023-03-27T13:22:53.806Z,78.48
2023-03-27T13:28:31.496Z,77.69
2023-03-27T13:33:48.522Z,76.13
2023-03-27T13:39:22.644Z,76.17
2023-03-27T13:44:39.780Z,76.36
2023-03-27T13:50:14.522Z,76.35
2023-03-27T13:55:49.218Z,74.03
2023-03-27T14:01:15.480Z,72.17
2023-03-27T14:07:14.131Z,72.16
2023-03-27T14:12:27.103Z,71.89
2023-03-27T14:17:56.800Z,71.93
2023-03-27T14:23:11.188Z,71.66
2023-03-27T14:28:33.174Z,71.84
2023-03-27T14:33:49.699Z,72.11
2023-03-27T14:39:01.445Z,71.66
2023-03-27T14:44:09.536Z,70.54
2023-03-27T14:49:22.640Z,70.44
2023-03-27T14:54:39.304Z,69.77
2023-03-27T14:59:56.870Z,69.81
2023-03-27T15:05:12.370Z,68.99
2023-03-27T15:10:26.409Z,68.55
2023-03-27T15:15:40.499Z,67.04
2023-03-27T15:20:50.596Z,66.51
2023-03-27T15:26:02.939Z,65.28
2023-03-27T15:31:11.952Z,64.65
2023-03-27T15:36:27.759Z,65.50
2023-03-27T15:41:44.808Z,65.00
2023-03-27T15:46:56.030Z,64.77
2023-03-27T15:52:24.592Z,63.97
2023-03-27T15:57:32.473Z,63.45
2023-03-27T16:02:41.340Z,62.68
2023-03-27T16:07:50.263Z,63.16
2023-03-27T16:13:03.200Z,62.77
2023-03-27T16:18:19.400Z,63.12
2023-03-27T16:23:26.871Z,63.23
2023-03-27T16:28:35.167Z,62.79
2023-03-27T16:33:45.583Z,63.10
2023-03-27T16:38:53.991Z,62.74
2023-03-27T16:44:01.480Z,62.90
2023-03-27T16:49:09.074Z,61.90
2023-03-27T16:54:16.720Z,61.92
2023-03-27T16:59:25.033Z,62.15
2023-03-27T17:04:32.991Z,62.72
2023-03-27T17:09:41.432Z,63.31
2023-03-27T17:14:49.605Z,63.61
2023-03-27T17:19:58.626Z,63.00
2023-03-27T17:25:07.006Z,63.02
2023-03-27T17:30:21.408Z,62.94
2023-03-27T17:35:35.831Z,61.91
2023-03-27T17:40:44.433Z,59.38
2023-03-27T17:45:52.342Z,58.93
2023-03-27T17:51:08.738Z,58.64
2023-03-27T17:56:18.321Z,58.36
2023-03-27T18:01:28.002Z,57.73
2023-03-27T18:06:36.939Z,58.21
2023-03-27T18:11:44.631Z,58.25
2023-03-27T18:16:52.496Z,57.76
2023-03-27T18:22:00.996Z,57.18
2023-03-27T18:27:10.132Z,56.10
2023-03-27T18:32:17.815Z,55.73
2023-03-27T18:37:26.242Z,56.34
2023-03-27T18:42:33.660Z,56.12
2023-03-27T18:47:43.578Z,55.27
2023-03-27T18:52:52.293Z,56.38
2023-03-27T18:57:59.782Z,55.92
2023-03-27T19:03:09.866Z,56.34
2023-03-27T19:08:18.611Z,56.22
2023-03-27T19:13:26.957Z,57.00
2023-03-27T19:18:34.291Z,57.78
2023-03-27T19:23:42.558Z,58.42
2023-03-27T19:28:51.008Z,58.80
2023-03-27T19:33:58.443Z,59.44
2023-03-27T19:39:06.354Z,59.78
2023-03-27T19:44:16.102Z,59.49
2023-03-27T19:49:24.913Z,59.79
2023-03-27T19:54:32.223Z,60.19
2023-03-27T19:59:38.067Z,60.88
2023-03-27T20:04:45.627Z,60.92
2023-03-27T20:09:53.455Z,61.45
2023-03-27T20:15:11.135Z,61.89
2023-03-27T20:20:20.145Z,62.22
2023-03-27T20:25:30.685Z,62.07
2023-03-27T20:30:41.607Z,62.40
2023-03-27T20:35:49.212Z,62.35
2023-03-27T20:40:58.052Z,62.22
2023-03-27T20:46:07.404Z,62.64
2023-03-27T20:51:17.886Z,62.89
2023-03-27T20:56:26.113Z,62.60
2023-03-27T21:01:34.652Z,63.04
2023-03-27T21:06:43.321Z,63.44
2023-03-27T21:11:51.681Z,63.51
2023-03-27T21:16:59.198Z,63.65
2023-03-27T21:22:06.822Z,63.76
2023-03-27T21:27:15.395Z,63.78
2023-03-27T21:32:23.334Z,64.15
2023-03-27T21:37:30.771Z,64.18
2023-03-27T21:42:38.370Z,64.70
2023-03-27T21:47:47.875Z,64.76
2023-03-27T21:52:55.860Z,64.71
2023-03-27T21:58:03.470Z,65.09
2023-03-27T22:03:11.306Z,65.28
2023-03-27T22:08:19.422Z,65.23
2023-03-27T22:13:27.717Z,65.22
2023-03-27T22:18:35.846Z,65.39
2023-03-27T22:23:43.321Z,65.70
2023-03-27T22:28:52.828Z,65.70
2023-03-27T22:34:04.486Z,65.90
2023-03-27T22:39:12.425Z,65.82
2023-03-27T22:44:19.944Z,65.87
2023-03-27T22:49:27.652Z,65.99
2023-03-27T22:54:35.260Z,66.39
2023-03-27T22:59:42.666Z,66.35
2023-03-27T23:04:50.301Z,66.53
2023-03-27T23:09:57.981Z,66.94
2023-03-27T23:15:06.261Z,67.00
2023-03-27T23:20:15.448Z,67.12
2023-03-27T23:25:23.258Z,67.16
2023-03-27T23:30:31.193Z,67.50
2023-03-27T23:35:38.734Z,67.79
2023-03-27T23:40:46.549Z,68.05
2023-03-27T23:45:56.073Z,68.39
2023-03-27T23:51:03.868Z,68.33
2023-03-27T23:56:12.851Z,68.92
